createdAt,value
2023-02-24T00:01:23.983Z,5.63
2023-02-24T00:06:16.509Z,4.23
2023-02-24T00:08:42.788Z,6.00
2023-02-24T00:11:13.140Z,6.63
2023-02-24T00:13:40.215Z,7.63
2023-02-24T00:16:07.376Z,6.97
2023-02-24T00:18:33.992Z,8.13
2023-02-24T00:21:05.519Z,6.87
2023-02-24T00:23:31.817Z,7.17
2023-02-24T00:25:59.130Z,6.83
2023-02-24T00:28:26.148Z,7.17
2023-02-24T00:30:52.573Z,7.93
2023-02-24T00:33:24.354Z,5.67
2023-02-24T00:35:51.031Z,7.27
2023-02-24T00:38:17.760Z,6.87
2023-02-24T00:40:47.962Z,6.53
2023-02-24T00:43:14.264Z,6.00
2023-02-24T00:45:40.638Z,6.70
2023-02-24T00:48:10.563Z,6.10
2023-02-24T00:50:39.026Z,7.53
2023-02-24T00:53:05.832Z,7.23
2023-02-24T00:55:36.359Z,6.43
2023-02-24T00:58:07.337Z,6.47
2023-02-24T01:00:36.667Z,6.83
2023-02-24T01:03:03.510Z,6.33
2023-02-24T01:05:29.832Z,6.57
2023-02-24T01:07:56.132Z,6.00
2023-02-24T01:10:23.421Z,6.80
2023-02-24T01:12:49.939Z,6.77
2023-02-24T01:15:17.685Z,5.50
2023-02-24T01:17:44.199Z,6.47
2023-02-24T01:20:18.191Z,6.83
2023-02-24T01:22:45.597Z,5.83
2023-02-24T01:25:12.039Z,7.50
2023-02-24T01:27:40.220Z,7.23
2023-02-24T01:30:15.964Z,6.33
2023-02-24T01:32:43.110Z,6.33
2023-02-24T01:35:11.466Z,7.20
2023-02-24T01:37:38.193Z,6.30
2023-02-24T01:40:11.242Z,6.80
2023-02-24T01:42:41.131Z,6.63
2023-02-24T01:45:15.042Z,7.17
2023-02-24T01:47:41.741Z,7.43
2023-02-24T01:50:08.806Z,8.33
2023-02-24T01:52:36.528Z,6.90
2023-02-24T01:55:10.646Z,7.73
2023-02-24T01:57:38.678Z,7.53
2023-02-24T02:00:11.217Z,6.83
2023-02-24T02:02:43.410Z,8.93
2023-02-24T02:05:10.326Z,6.43
2023-02-24T02:07:38.948Z,6.57
2023-02-24T02:10:09.081Z,7.77
2023-02-24T02:12:37.151Z,5.90
2023-02-24T02:15:04.379Z,5.63
2023-02-24T02:17:30.651Z,6.37
2023-02-24T02:20:15.808Z,8.70
2023-02-24T02:22:42.160Z,6.85
2023-02-24T02:25:09.493Z,6.10
2023-02-24T02:27:57.990Z,6.83
2023-02-24T02:30:28.149Z,5.37
2023-02-24T02:33:01.727Z,6.60
2023-02-24T02:35:31.696Z,5.67
2023-02-24T02:38:10.711Z,5.07
2023-02-24T02:40:39.370Z,6.33
2023-02-24T02:43:14.767Z,5.07
2023-02-24T02:45:47.653Z,5.77
2023-02-24T02:48:20.239Z,4.93
2023-02-24T02:50:52.063Z,5.27
2023-02-24T02:53:23.109Z,4.47
2023-02-24T02:55:53.469Z,5.23
2023-02-24T02:58:23.588Z,3.70
2023-02-24T03:01:01.624Z,3.43
2023-02-24T03:03:57.318Z,3.17
2023-02-24T03:06:26.282Z,4.18
2023-02-24T03:08:58.153Z,4.93
2023-02-24T03:11:25.891Z,5.90
2023-02-24T03:13:54.498Z,4.77
2023-02-24T03:16:23.112Z,3.83
2023-02-24T03:18:56.597Z,3.77
2023-02-24T03:21:38.292Z,3.53
2023-02-24T03:24:06.352Z,4.00
2023-02-24T03:26:52.100Z,3.00
2023-02-24T03:29:24.377Z,4.80
2023-02-24T03:31:54.236Z,4.23
2023-02-24T03:34:44.198Z,3.83
2023-02-24T03:37:10.579Z,2.30
2023-02-24T03:39:36.872Z,2.60
2023-02-24T03:42:29.439Z,3.33
2023-02-24T03:44:58.457Z,3.50
2023-02-24T03:47:25.593Z,4.00
2023-02-24T03:49:51.932Z,3.40
2023-02-24T03:52:32.404Z,3.40
2023-02-24T03:55:01.903Z,2.50
2023-02-24T03:57:37.384Z,2.43
2023-02-24T04:00:16.660Z,3.50
2023-02-24T04:02:43.603Z,2.77
2023-02-24T04:05:20.632Z,3.00
2023-02-24T04:08:00.991Z,2.90
2023-02-24T04:10:31.621Z,2.87
2023-02-24T04:13:02.224Z,2.93
2023-02-24T04:15:31.578Z,3.00
2023-02-24T04:18:07.130Z,3.87
2023-02-24T04:20:34.956Z,3.97
2023-02-24T04:23:16.208Z,3.23
2023-02-24T04:25:44.261Z,2.57
2023-02-24T04:28:11.776Z,3.17
2023-02-24T04:30:40.874Z,3.13
2023-02-24T04:33:07.677Z,4.40
2023-02-24T04:35:34.144Z,4.63
2023-02-24T04:38:00.465Z,3.33
2023-02-24T04:40:26.866Z,2.83
2023-02-24T04:42:53.934Z,4.27
2023-02-24T04:45:28.107Z,3.43
2023-02-24T04:47:56.257Z,3.33
2023-02-24T04:50:24.262Z,3.90
2023-02-24T04:52:51.800Z,2.43
2023-02-24T04:55:19.391Z,3.20
2023-02-24T04:57:46.042Z,3.70
2023-02-24T05:00:20.682Z,3.47
2023-02-24T05:02:48.384Z,2.83
2023-02-24T05:05:15.421Z,3.87
2023-02-24T05:07:41.790Z,2.93
2023-02-24T05:10:08.266Z,3.23
2023-02-24T05:12:34.568Z,2.53
2023-02-24T05:15:01.354Z,3.20
2023-02-24T05:17:27.962Z,4.00
2023-02-24T05:20:13.161Z,3.00
2023-02-24T05:22:39.498Z,2.83
2023-02-24T05:25:06.056Z,2.83
2023-02-24T05:27:32.363Z,3.40
2023-02-24T05:29:58.669Z,3.80
2023-02-24T05:32:25.430Z,5.63
2023-02-24T05:34:51.817Z,5.70
2023-02-24T05:37:18.429Z,4.57
2023-02-24T05:39:44.747Z,3.00
2023-02-24T05:42:11.597Z,2.60
2023-02-24T05:44:37.907Z,2.10
2023-02-24T05:47:05.521Z,1.90
2023-02-24T05:49:34.030Z,2.00
2023-02-24T05:52:01.946Z,2.50
2023-02-24T05:54:32.935Z,2.10
2023-02-24T05:57:13.377Z,2.00
2023-02-24T05:59:41.183Z,2.23
2023-02-24T06:02:09.413Z,2.00
2023-02-24T06:04:39.837Z,2.23
2023-02-24T06:07:07.310Z,2.43
2023-02-24T06:09:34.605Z,2.40
2023-02-24T06:12:02.501Z,7.87
2023-02-24T06:14:28.857Z,5.67
2023-02-24T06:16:55.220Z,8.00
2023-02-24T06:19:21.506Z,7.87
2023-02-24T06:21:47.801Z,9.00
2023-02-24T06:24:15.252Z,8.00
2023-02-24T06:26:43.381Z,7.10
2023-02-24T06:29:14.608Z,8.67
2023-02-24T06:31:41.796Z,7.00
2023-02-24T06:34:10.478Z,9.43
2023-02-24T06:36:37.712Z,6.83
2023-02-24T06:39:08.063Z,9.80
2023-02-24T06:41:35.101Z,9.17
2023-02-24T06:44:01.545Z,12.27
2023-02-24T06:46:28.222Z,16.63
2023-02-24T06:48:54.605Z,13.67
2023-02-24T06:51:21.530Z,15.07
2023-02-24T06:53:49.081Z,18.20
2023-02-24T06:56:17.993Z,13.80
2023-02-24T06:58:45.140Z,14.57
2023-02-24T07:01:15.700Z,14.60
2023-02-24T07:03:47.804Z,16.57
2023-02-24T07:06:28.513Z,16.97
2023-02-24T07:08:57.117Z,16.43
2023-02-24T07:11:24.145Z,14.33
2023-02-24T07:13:50.578Z,18.77
2023-02-24T07:16:17.966Z,15.67
2023-02-24T07:18:48.218Z,16.93
2023-02-24T07:21:16.322Z,15.97
2023-02-24T07:23:49.572Z,5.87
2023-02-24T07:26:17.058Z,6.80
2023-02-24T07:28:43.658Z,7.77
2023-02-24T07:31:12.013Z,7.47
2023-02-24T07:33:45.080Z,10.50
2023-02-24T07:36:14.844Z,6.77
2023-02-24T07:38:42.050Z,6.83
2023-02-24T07:41:10.724Z,6.60
2023-02-24T07:43:37.485Z,22.40
2023-02-24T07:46:11.844Z,13.50
2023-02-24T07:48:39.508Z,13.30
2023-02-24T07:51:09.673Z,18.33
2023-02-24T07:53:36.487Z,10.43
2023-02-24T07:56:13.662Z,18.17
2023-02-24T07:58:59.535Z,10.47
2023-02-24T08:01:28.213Z,15.47
2023-02-24T08:04:03.446Z,14.83
2023-02-24T08:06:38.104Z,18.07
2023-02-24T08:09:18.467Z,15.23
2023-02-24T08:11:46.051Z,10.30
2023-02-24T08:14:16.292Z,14.37
2023-02-24T08:16:43.344Z,16.57
2023-02-24T08:19:13.183Z,16.93
2023-02-24T08:21:41.383Z,14.70
2023-02-24T08:24:17.502Z,13.30
2023-02-24T08:27:05.041Z,10.03
2023-02-24T08:29:31.835Z,11.17
2023-02-24T08:31:59.216Z,20.67
2023-02-24T08:34:31.630Z,12.77
2023-02-24T08:36:58.344Z,42.53
2023-02-24T08:39:24.835Z,12.27
2023-02-24T08:41:51.583Z,14.57
2023-02-24T08:44:21.802Z,18.13
2023-02-24T08:46:52.380Z,14.67
2023-02-24T08:49:19.705Z,10.60
2023-02-24T08:51:47.417Z,16.60
2023-02-24T08:54:17.702Z,17.97
2023-02-24T08:56:49.019Z,9.77
2023-02-24T08:59:37.418Z,17.47
2023-02-24T09:02:23.351Z,14.73
2023-02-24T09:05:03.962Z,23.40
2023-02-24T09:07:37.773Z,22.43
2023-02-24T09:10:05.787Z,24.23
2023-02-24T09:12:32.187Z,12.73
2023-02-24T09:15:01.825Z,19.83
2023-02-24T09:17:49.810Z,14.97
2023-02-24T09:20:56.202Z,18.57
2023-02-24T09:23:29.806Z,19.52
2023-02-24T09:25:56.803Z,11.63
2023-02-24T09:28:24.967Z,26.83
2023-02-24T09:30:55.384Z,26.10
2023-02-24T09:33:22.375Z,20.77
2023-02-24T09:35:50.471Z,29.53
2023-02-24T09:38:18.087Z,22.63
2023-02-24T09:40:52.066Z,20.73
2023-02-24T09:43:20.459Z,18.57
2023-02-24T09:45:53.449Z,26.70
2023-02-24T09:48:26.435Z,12.27
2023-02-24T09:51:05.205Z,19.93
2023-02-24T09:53:41.877Z,9.30
2023-02-24T09:56:13.390Z,27.00
2023-02-24T09:58:58.657Z,29.43
2023-02-24T10:01:43.307Z,19.38
2023-02-24T10:04:22.986Z,18.38
2023-02-24T10:06:51.663Z,28.43
2023-02-24T10:09:27.118Z,33.43
2023-02-24T10:11:55.217Z,23.93
2023-02-24T10:14:27.432Z,43.50
2023-02-24T10:17:15.105Z,32.57
2023-02-24T10:19:41.879Z,19.23
2023-02-24T10:22:34.718Z,21.40
2023-02-24T10:25:21.252Z,43.20
2023-02-24T10:28:06.259Z,23.10
2023-02-24T10:31:01.473Z,43.83
2023-02-24T10:33:31.700Z,53.40
2023-02-24T10:36:09.247Z,42.57
2023-02-24T10:38:36.554Z,15.03
2023-02-24T10:41:06.153Z,35.10
2023-02-24T10:43:34.710Z,25.97
2023-02-24T10:46:16.985Z,26.53
2023-02-24T10:48:50.853Z,52.77
2023-02-24T10:51:30.352Z,24.47
2023-02-24T10:54:22.424Z,38.37
2023-02-24T10:57:10.235Z,45.07
2023-02-24T11:00:10.633Z,19.63
2023-02-24T11:02:56.571Z,33.07
2023-02-24T11:05:38.354Z,42.27
2023-02-24T11:08:07.725Z,44.23
2023-02-24T11:10:52.782Z,63.87
2023-02-24T11:13:37.902Z,24.25
2023-02-24T11:16:26.463Z,29.67
2023-02-24T11:18:54.580Z,18.63
2023-02-24T11:21:23.094Z,34.43
2023-02-24T11:23:51.168Z,45.20
2023-02-24T11:26:26.603Z,40.70
2023-02-24T11:28:59.450Z,27.77
2023-02-24T11:31:44.770Z,27.93
2023-02-24T11:34:18.606Z,37.30
2023-02-24T11:36:54.543Z,41.17
2023-02-24T11:39:45.548Z,26.67
2023-02-24T11:42:16.299Z,71.97
2023-02-24T11:44:50.761Z,35.00
2023-02-24T11:47:20.065Z,25.85
2023-02-24T11:49:50.407Z,41.90
2023-02-24T11:52:19.895Z,43.73
2023-02-24T11:54:52.224Z,36.97
2023-02-24T11:57:21.528Z,29.07
2023-02-24T12:00:13.304Z,19.03
2023-02-24T12:02:39.790Z,17.13
2023-02-24T12:05:12.909Z,18.17
2023-02-24T12:07:44.474Z,20.53
2023-02-24T12:10:17.269Z,43.23
2023-02-24T12:13:07.446Z,42.97
2023-02-24T12:15:38.950Z,15.83
2023-02-24T12:18:24.339Z,18.37
2023-02-24T12:21:06.880Z,19.58
2023-02-24T12:23:34.522Z,25.53
2023-02-24T12:26:08.927Z,18.80
2023-02-24T12:28:35.354Z,14.93
2023-02-24T12:31:23.928Z,50.43
2023-02-24T12:33:50.575Z,20.63
2023-02-24T12:36:19.427Z,45.60
2023-02-24T12:39:00.392Z,29.57
2023-02-24T12:41:32.986Z,18.23
2023-02-24T12:44:02.072Z,18.33
2023-02-24T12:46:38.322Z,41.17
2023-02-24T12:49:23.710Z,28.47
2023-02-24T12:52:13.285Z,20.55
2023-02-24T12:54:45.384Z,27.33
2023-02-24T12:57:11.695Z,18.17
2023-02-24T12:59:39.106Z,24.30
2023-02-24T13:02:05.563Z,26.03
2023-02-24T13:04:47.462Z,21.97
2023-02-24T13:07:28.863Z,17.77
2023-02-24T13:09:58.282Z,29.33
2023-02-24T13:12:34.205Z,20.50
2023-02-24T13:15:00.882Z,8.63
2023-02-24T13:17:27.379Z,15.57
2023-02-24T13:19:55.304Z,12.00
2023-02-24T13:22:23.797Z,8.67
2023-02-24T13:24:56.075Z,13.23
2023-02-24T13:27:26.708Z,12.17
2023-02-24T13:29:57.177Z,11.87
2023-02-24T13:32:34.283Z,17.27
2023-02-24T13:35:02.647Z,21.20
2023-02-24T13:37:34.616Z,28.73
2023-02-24T13:40:12.198Z,18.77
2023-02-24T13:42:38.608Z,31.67
2023-02-24T13:45:06.535Z,16.67
2023-02-24T13:47:51.401Z,18.33
2023-02-24T13:50:21.033Z,52.83
2023-02-24T13:53:06.479Z,19.23
2023-02-24T13:55:32.764Z,18.75
2023-02-24T13:58:02.129Z,27.00
2023-02-24T14:00:36.178Z,19.77
2023-02-24T14:03:09.163Z,36.90
2023-02-24T14:05:35.986Z,19.20
2023-02-24T14:08:03.313Z,15.07
2023-02-24T14:10:34.674Z,16.73
2023-02-24T14:13:06.427Z,22.80
2023-02-24T14:15:33.415Z,14.37
2023-02-24T14:18:03.793Z,14.90
2023-02-24T14:20:34.440Z,17.40
2023-02-24T14:23:01.185Z,28.40
2023-02-24T14:25:29.838Z,12.53
2023-02-24T14:27:56.905Z,24.90
2023-02-24T14:30:26.088Z,41.67
2023-02-24T14:32:52.893Z,20.83
2023-02-24T14:35:41.729Z,10.93
2023-02-24T14:38:27.244Z,34.57
2023-02-24T14:40:53.575Z,13.02
2023-02-24T14:43:20.235Z,25.80
2023-02-24T14:45:50.352Z,26.83
2023-02-24T14:48:24.442Z,21.03
2023-02-24T14:50:50.968Z,16.50
2023-02-24T14:53:18.770Z,29.77
2023-02-24T14:55:50.018Z,22.13
2023-02-24T14:58:21.669Z,7.53
2023-02-24T15:00:49.840Z,33.73
2023-02-24T15:03:23.695Z,12.77
2023-02-24T15:05:52.210Z,16.43
2023-02-24T15:08:31.449Z,19.13
2023-02-24T15:10:58.129Z,18.53
2023-02-24T15:13:33.982Z,11.23
2023-02-24T15:16:04.484Z,60.50
2023-02-24T15:18:30.866Z,45.70
2023-02-24T15:21:01.289Z,35.17
2023-02-24T15:23:32.757Z,36.70
2023-02-24T15:25:59.389Z,20.67
2023-02-24T15:28:33.041Z,16.37
2023-02-24T15:31:04.762Z,12.10
2023-02-24T15:33:35.903Z,7.13
2023-02-24T15:36:05.402Z,11.27
2023-02-24T15:38:42.297Z,7.73
2023-02-24T15:41:09.948Z,6.13
2023-02-24T15:43:37.201Z,12.67
2023-02-24T15:46:13.792Z,40.43
2023-02-24T15:48:42.643Z,9.80
2023-02-24T15:51:17.997Z,7.27
2023-02-24T15:53:44.276Z,11.63
2023-02-24T15:56:10.565Z,28.30
2023-02-24T15:58:38.059Z,9.23
2023-02-24T16:01:04.482Z,16.83
2023-02-24T16:03:32.672Z,6.53
2023-02-24T16:05:59.747Z,5.97
2023-02-24T16:08:26.143Z,10.43
2023-02-24T16:10:53.829Z,21.93
2023-02-24T16:13:24.060Z,21.50
2023-02-24T16:15:50.856Z,12.10
2023-02-24T16:18:21.705Z,17.13
2023-02-24T16:20:54.165Z,17.13
2023-02-24T16:23:22.174Z,20.37
2023-02-24T16:25:49.503Z,27.80
2023-02-24T16:28:17.118Z,25.93
2023-02-24T16:30:44.183Z,12.93
2023-02-24T16:33:12.868Z,11.23
2023-02-24T16:35:41.636Z,14.77
2023-02-24T16:38:14.988Z,15.50
2023-02-24T16:40:42.720Z,21.37
2023-02-24T16:43:09.365Z,8.30
2023-02-24T16:45:36.325Z,14.70
2023-02-24T16:48:05.086Z,20.93
2023-02-24T16:50:33.460Z,7.77
2023-02-24T16:52:59.816Z,13.57
2023-02-24T16:55:26.427Z,17.17
2023-02-24T16:57:52.730Z,13.83
2023-02-24T17:00:23.880Z,8.63
2023-02-24T17:02:50.615Z,12.03
2023-02-24T17:05:17.146Z,14.60
2023-02-24T17:07:43.448Z,7.57
2023-02-24T17:10:10.189Z,8.77
2023-02-24T17:12:36.497Z,11.23
2023-02-24T17:15:02.906Z,12.93
2023-02-24T17:17:29.267Z,5.93
2023-02-24T17:19:55.588Z,15.10
2023-02-24T17:22:22.545Z,12.73
2023-02-24T17:24:49.119Z,15.67
2023-02-24T17:27:15.410Z,23.80
2023-02-24T17:29:41.756Z,34.93
2023-02-24T17:32:08.305Z,18.77
2023-02-24T17:34:34.805Z,7.57
2023-02-24T17:37:01.111Z,6.33
2023-02-24T17:39:27.505Z,8.57
2023-02-24T17:41:54.876Z,2.87
2023-02-24T17:44:21.231Z,9.07
2023-02-24T17:46:47.566Z,3.07
2023-02-24T17:49:13.930Z,8.17
2023-02-24T17:51:40.288Z,16.03
2023-02-24T17:54:06.768Z,35.10
2023-02-24T17:56:33.076Z,4.60
2023-02-24T17:59:00.934Z,12.30
2023-02-24T18:01:27.663Z,10.50
2023-02-24T18:03:55.339Z,11.73
2023-02-24T18:06:21.942Z,5.77
2023-02-24T18:08:48.436Z,6.93
2023-02-24T18:11:16.068Z,4.00
2023-02-24T18:13:42.684Z,6.27
2023-02-24T18:16:10.547Z,9.77
2023-02-24T18:18:37.082Z,10.23
2023-02-24T18:21:05.226Z,6.03
2023-02-24T18:23:32.167Z,17.23
2023-02-24T18:26:05.403Z,12.57
2023-02-24T18:28:32.386Z,14.10
2023-02-24T18:31:00.488Z,15.77
2023-02-24T18:33:27.654Z,14.70
2023-02-24T18:36:00.174Z,15.83
2023-02-24T18:38:26.534Z,25.50
2023-02-24T18:41:03.766Z,14.00
2023-02-24T18:43:30.513Z,8.50
2023-02-24T18:45:58.044Z,8.90
2023-02-24T18:48:24.720Z,8.77
2023-02-24T18:50:54.598Z,9.03
2023-02-24T18:53:21.510Z,14.93
2023-02-24T18:55:48.471Z,12.83
2023-02-24T18:58:15.130Z,8.90
2023-02-24T19:00:41.971Z,11.90
2023-02-24T19:03:08.321Z,13.40
2023-02-24T19:05:38.711Z,11.80
2023-02-24T19:08:05.514Z,12.33
2023-02-24T19:10:31.906Z,17.17
2023-02-24T19:12:58.196Z,10.57
2023-02-24T19:15:24.501Z,13.70
2023-02-24T19:17:50.814Z,12.33
2023-02-24T19:20:17.330Z,13.70
2023-02-24T19:22:43.822Z,8.03
2023-02-24T19:25:10.204Z,11.60
2023-02-24T19:27:36.511Z,12.03
2023-02-24T19:30:02.937Z,10.97
2023-02-24T19:32:29.322Z,9.03
2023-02-24T19:34:55.714Z,8.10
2023-02-24T19:37:22.087Z,10.83
2023-02-24T19:39:48.431Z,10.03
2023-02-24T19:42:14.806Z,9.53
2023-02-24T19:44:41.232Z,9.93
2023-02-24T19:47:07.551Z,10.63
2023-02-24T19:49:34.182Z,12.50
2023-02-24T19:52:00.706Z,10.07
2023-02-24T19:54:27.907Z,11.27
2023-02-24T19:56:57.218Z,9.17
2023-02-24T19:59:24.031Z,16.67
2023-02-24T20:01:57.285Z,13.73
2023-02-24T20:04:23.857Z,11.63
2023-02-24T20:06:50.204Z,10.93
2023-02-24T20:09:21.146Z,11.13
2023-02-24T20:11:48.317Z,8.97
2023-02-24T20:14:15.632Z,10.73
2023-02-24T20:16:42.735Z,9.63
2023-02-24T20:19:09.989Z,9.00
2023-02-24T20:21:38.441Z,10.00
2023-02-24T20:24:06.067Z,7.27
2023-02-24T20:26:32.859Z,8.67
2023-02-24T20:28:59.668Z,9.20
2023-02-24T20:31:26.155Z,7.03
2023-02-24T20:33:52.633Z,10.53
2023-02-24T20:36:20.576Z,11.97
2023-02-24T20:38:47.191Z,9.67
2023-02-24T20:41:14.010Z,12.20
2023-02-24T20:43:40.352Z,9.70
2023-02-24T20:46:12.613Z,9.00
2023-02-24T20:48:38.971Z,6.97
2023-02-24T20:51:05.640Z,10.47
2023-02-24T20:53:31.989Z,7.60
2023-02-24T20:56:02.579Z,7.23
2023-02-24T20:58:28.931Z,10.30
2023-02-24T21:00:55.302Z,7.90
2023-02-24T21:03:23.825Z,7.60
2023-02-24T21:05:58.855Z,6.97
2023-02-24T21:08:30.870Z,5.30
2023-02-24T21:10:57.160Z,6.70
2023-02-24T21:13:23.605Z,20.60
2023-02-24T21:15:51.860Z,4.73
2023-02-24T21:18:19.022Z,8.63
2023-02-24T21:20:45.481Z,4.60
2023-02-24T21:23:11.851Z,10.87
2023-02-24T21:25:38.600Z,11.37
2023-02-24T21:28:05.100Z,6.70
2023-02-24T21:30:31.441Z,10.37
2023-02-24T21:32:57.834Z,7.10
2023-02-24T21:35:24.123Z,6.60
2023-02-24T21:37:50.412Z,4.30
2023-02-24T21:40:17.635Z,3.63
2023-02-24T21:42:46.865Z,7.73
2023-02-24T21:45:18.208Z,5.57
2023-02-24T21:47:44.999Z,6.43
2023-02-24T21:50:13.270Z,7.00
2023-02-24T21:52:39.948Z,4.13
2023-02-24T21:55:07.118Z,6.53
2023-02-24T21:57:37.005Z,7.07
2023-02-24T22:00:11.554Z,4.90
2023-02-24T22:02:37.849Z,7.50
2023-02-24T22:05:04.227Z,7.90
2023-02-24T22:07:30.523Z,3.60
2023-02-24T22:09:56.860Z,11.03
2023-02-24T22:12:23.245Z,3.77
2023-02-24T22:14:49.553Z,5.17
2023-02-24T22:17:15.867Z,5.13
2023-02-24T22:19:42.153Z,8.40
2023-02-24T22:22:08.944Z,3.60
2023-02-24T22:24:35.582Z,4.93
2023-02-24T22:27:02.060Z,3.13
2023-02-24T22:29:28.377Z,4.93
2023-02-24T22:31:54.754Z,5.10
2023-02-24T22:34:21.116Z,2.47
2023-02-24T22:36:47.446Z,2.37
2023-02-24T22:39:16.547Z,3.17
2023-02-24T22:41:43.142Z,4.30
2023-02-24T22:44:09.885Z,4.17
2023-02-24T22:46:37.441Z,3.30
2023-02-24T22:49:04.586Z,5.47
2023-02-24T22:51:30.998Z,4.47
2023-02-24T22:53:57.350Z,2.93
2023-02-24T22:56:27.622Z,5.00
2023-02-24T22:58:54.076Z,4.60
2023-02-24T23:01:31.709Z,7.33
2023-02-24T23:04:02.087Z,4.73
2023-02-24T23:06:29.352Z,5.83
2023-02-24T23:08:56.692Z,7.97
2023-02-24T23:11:27.845Z,6.70
2023-02-24T23:13:54.607Z,4.53
2023-02-24T23:16:22.861Z,4.33
2023-02-24T23:18:50.813Z,3.10
2023-02-24T23:21:19.233Z,5.47
2023-02-24T23:23:46.141Z,5.93
2023-02-24T23:26:12.498Z,3.47
2023-02-24T23:28:39.251Z,4.07
2023-02-24T23:31:06.002Z,3.77
2023-02-24T23:33:32.692Z,3.53
2023-02-24T23:36:03.290Z,3.60
2023-02-24T23:38:29.611Z,4.13
2023-02-24T23:40:55.954Z,5.43
2023-02-24T23:43:22.250Z,3.17
2023-02-24T23:45:48.661Z,5.90
2023-02-24T23:48:15.043Z,7.17
2023-02-24T23:50:42.140Z,3.23
2023-02-24T23:53:08.961Z,3.00
2023-02-24T23:55:35.640Z,5.47
2023-02-24T23:58:02.585Z,4.13
